Evanston Uinta County Burns Field
KEVW : now visible

Airfield :











YOU CAN JOIN US ON...

 
LOGIN :

Register | Disclaimer

   EN    FR    IT 

 









Legend :    VFR   Marginal VFR   IFR   Intensive IFR   Very Intensive IFR
Visi :
Ceiling :
>= 8 km
>= 3000ft
5 to 8 km
1000 to 3000 ft
1500m to 5 km
500 to 1000 ft
800 to 1500m
200 to 500 ft
< 800m
< 200 ft
Symbols :   Thunderstorms  Fog  Heavy snow  Heavy precipitations  Wind > 20 kt






- Airport Elevation : 7143 ft


KEVW - Evanston Uinta County Burns Field

CURRENT METAR :
  • 220253Z AUTO 24012KT 10SM CLR 11/M06 A2990 RMK AO2 SLP070 T01111056 58004 $

EXPIRED METARs :
  • 220153Z AUTO 23015G19KT 10SM CLR 11/M06 A2991 RMK AO2 SLP080 T01111061 $
  • 220053Z AUTO 24009KT 10SM CLR 12/M06 A2992 RMK AO2 PK WND 24028/2358 SLP083 T01171061 $

TAF KEVW
Valid from the 22 at 00:00 until the 23 at 00:00 UTC


212355Z 2200/2224 26015G25KT P6SM SCT150
FM220100 28010KT P6SM SCT150
FM221800 27020G30KT P6SM FEW200
KZLC FIR / North America



MET'MAP, your aeronautical weather chart ! - Copyright ORBIFLY December 2007 - Disclaimer

ORBIFLY MET'MAP TEAM :

Programming & Development : Alexandra Zaïnal
Concept & original design : Baudouin d'Aumeries
Assistance for programming : Marc-Olivier Méhu
Technical & hardware support : Manuel Goepfert

Contact : metmap@orbifly.com




SOURCES & CREDITS :

   NOAA       Earth
Advisory